createdAt,value
2023-05-12T00:00:44.836Z,94638.00
2023-05-12T00:01:44.693Z,94638.00
2023-05-12T00:02:44.846Z,94638.00
2023-05-12T00:03:44.889Z,94636.00
2023-05-12T00:04:44.834Z,94640.00
2023-05-12T00:05:44.829Z,94640.00
2023-05-12T00:06:44.774Z,94640.00
2023-05-12T00:07:44.778Z,94638.00
2023-05-12T00:08:44.802Z,94640.00
2023-05-12T00:09:44.796Z,94640.00
2023-05-12T00:10:45.350Z,94640.00
2023-05-12T00:11:44.850Z,94638.00
2023-05-12T00:12:44.827Z,94640.00
2023-05-12T00:13:44.873Z,94638.00
2023-05-12T00:14:44.870Z,94638.00
2023-05-12T00:15:45.306Z,94638.00
2023-05-12T00:16:44.984Z,94638.00
2023-05-12T00:17:44.954Z,94636.00
2023-05-12T00:18:44.994Z,94636.00
2023-05-12T00:19:44.932Z,94634.00
2023-05-12T00:20:45.314Z,94634.00
2023-05-12T00:21:44.955Z,94634.00
2023-05-12T00:22:44.941Z,94634.00
2023-05-12T00:23:44.992Z,94636.00
2023-05-12T00:24:44.978Z,94634.00
2023-05-12T00:25:45.420Z,94638.00
2023-05-12T00:26:45.022Z,94640.00
2023-05-12T00:27:45.014Z,94640.00
2023-05-12T00:28:45.021Z,94640.00
2023-05-12T00:29:45.096Z,94640.00
2023-05-12T00:30:45.051Z,94644.00
2023-05-12T00:31:45.092Z,94644.00
2023-05-12T00:32:45.194Z,94644.00
2023-05-12T00:33:45.072Z,94644.00
2023-05-12T00:34:45.080Z,94644.00
2023-05-12T00:35:45.360Z,94644.00
2023-05-12T00:36:45.153Z,94644.00
2023-05-12T00:37:45.145Z,94642.00
2023-05-12T00:38:45.187Z,94642.00
2023-05-12T00:39:45.211Z,94644.00
2023-05-12T00:40:45.341Z,94640.00
2023-05-12T00:41:45.149Z,94640.00
2023-05-12T00:42:45.167Z,94638.00
2023-05-12T00:43:45.206Z,94638.00
2023-05-12T00:44:45.222Z,94636.00
2023-05-12T00:45:45.452Z,94636.00
2023-05-12T00:46:45.230Z,94634.00
2023-05-12T00:47:45.268Z,94636.00
2023-05-12T00:48:45.244Z,94636.00
2023-05-12T00:49:45.275Z,94636.00
2023-05-12T00:50:45.257Z,94634.00
2023-05-12T00:51:45.323Z,94636.00
2023-05-12T00:52:45.290Z,94634.00
2023-05-12T00:53:50.068Z,94634.00
2023-05-12T00:54:46.305Z,94632.00
2023-05-12T00:55:45.362Z,94634.00
2023-05-12T00:56:45.297Z,94630.00
2023-05-12T00:57:45.265Z,94632.00
2023-05-12T00:58:45.316Z,94630.00
2023-05-12T00:59:45.250Z,94622.00
2023-05-12T01:00:45.261Z,94622.00
2023-05-12T01:01:45.256Z,94620.00
2023-05-12T01:02:45.365Z,94618.00
2023-05-12T01:03:45.303Z,94618.00
2023-05-12T01:04:45.234Z,94618.00
2023-05-12T01:05:45.274Z,94618.00
2023-05-12T01:06:45.225Z,94618.00
2023-05-12T01:07:45.244Z,94618.00
2023-05-12T01:08:45.268Z,94622.00
2023-05-12T01:09:45.354Z,94620.00
2023-05-12T01:10:45.377Z,94618.00
2023-05-12T01:11:45.222Z,94616.00
2023-05-12T01:12:45.152Z,94616.00
2023-05-12T01:13:45.151Z,94616.00
2023-05-12T01:14:45.201Z,94616.00
2023-05-12T01:15:45.359Z,94615.00
2023-05-12T01:16:45.178Z,94616.00
2023-05-12T01:17:45.210Z,94616.00
2023-05-12T01:18:45.128Z,94616.00
2023-05-12T01:19:45.116Z,94615.00
2023-05-12T01:20:45.119Z,94615.00
2023-05-12T01:21:45.115Z,94615.00
2023-05-12T01:22:45.141Z,94615.00
2023-05-12T01:23:45.092Z,94616.00
2023-05-12T01:24:45.149Z,94618.00
2023-05-12T01:25:45.155Z,94618.00
2023-05-12T01:26:45.146Z,94618.00
2023-05-12T01:27:45.182Z,94618.00
2023-05-12T01:28:45.168Z,94615.00
2023-05-12T01:29:45.187Z,94615.00
2023-05-12T01:30:45.496Z,94613.00
2023-05-12T01:31:45.224Z,94615.00
2023-05-12T01:32:45.199Z,94611.00
2023-05-12T01:33:45.201Z,94613.00
2023-05-12T01:34:45.210Z,94615.00
2023-05-12T01:35:45.373Z,94615.00
2023-05-12T01:36:45.245Z,94615.00
2023-05-12T01:37:45.270Z,94615.00
2023-05-12T01:38:45.289Z,94615.00
2023-05-12T01:39:45.323Z,94613.00
2023-05-12T01:40:45.357Z,94615.00
2023-05-12T01:41:45.295Z,94615.00
2023-05-12T01:42:45.328Z,94613.00
2023-05-12T01:43:45.354Z,94618.00
2023-05-12T01:44:45.346Z,94615.00
2023-05-12T01:45:45.378Z,94615.00
2023-05-12T01:46:45.411Z,94616.00
2023-05-12T01:47:45.450Z,94616.00
2023-05-12T01:48:45.408Z,94615.00
2023-05-12T01:49:45.477Z,94615.00
2023-05-12T01:50:45.432Z,94616.00
2023-05-12T01:51:45.461Z,94616.00
2023-05-12T01:52:45.487Z,94616.00
2023-05-12T01:53:45.503Z,94618.00
2023-05-12T01:54:45.466Z,94618.00
2023-05-12T01:55:45.517Z,94618.00
2023-05-12T01:56:45.518Z,94616.00
2023-05-12T01:57:45.555Z,94620.00
2023-05-12T01:58:45.582Z,94620.00
2023-05-12T01:59:45.558Z,94620.00
2023-05-12T02:00:45.554Z,94620.00
2023-05-12T02:01:45.614Z,94622.00
2023-05-12T02:02:45.703Z,94622.00
2023-05-12T02:03:45.673Z,94620.00
2023-05-12T02:04:45.609Z,94622.00
2023-05-12T02:05:46.372Z,94630.00
2023-05-12T02:06:45.693Z,94630.00
2023-05-12T02:07:45.655Z,94630.00
2023-05-12T02:08:45.702Z,94630.00
2023-05-12T02:09:45.679Z,94630.00
2023-05-12T02:10:45.708Z,94632.00
2023-05-12T02:11:45.711Z,94630.00
2023-05-12T02:12:45.757Z,94632.00
2023-05-12T02:13:45.738Z,94632.00
2023-05-12T02:14:45.798Z,94632.00
2023-05-12T02:15:45.746Z,94632.00
2023-05-12T02:16:45.953Z,94632.00
2023-05-12T02:17:45.850Z,94630.00
2023-05-12T02:18:45.870Z,94636.00
2023-05-12T02:19:45.884Z,94630.00
2023-05-12T02:20:45.873Z,94634.00
2023-05-12T02:21:45.881Z,94632.00
2023-05-12T02:22:45.876Z,94634.00
2023-05-12T02:23:45.908Z,94634.00
2023-05-12T02:24:45.921Z,94634.00
2023-05-12T02:25:45.972Z,94634.00
2023-05-12T02:26:45.981Z,94632.00
2023-05-12T02:27:45.953Z,94632.00
2023-05-12T02:28:45.985Z,94632.00
2023-05-12T02:29:46.008Z,94632.00
2023-05-12T02:30:45.995Z,94632.00
2023-05-12T02:31:46.105Z,94634.00
2023-05-12T02:32:46.140Z,94634.00
2023-05-12T02:33:46.084Z,94632.00
2023-05-12T02:34:46.074Z,94630.00
2023-05-12T02:35:46.097Z,94630.00
2023-05-12T02:36:46.104Z,94630.00
2023-05-12T02:37:46.090Z,94630.00
2023-05-12T02:38:46.122Z,94630.00
2023-05-12T02:39:46.168Z,94630.00
2023-05-12T02:40:46.155Z,94622.00
2023-05-12T02:41:46.159Z,94622.00
2023-05-12T02:42:46.161Z,94620.00
2023-05-12T02:43:46.165Z,94620.00
2023-05-12T02:44:46.256Z,94630.00
2023-05-12T02:45:46.282Z,94622.00
2023-05-12T02:46:46.265Z,94630.00
2023-05-12T02:47:46.340Z,94630.00
2023-05-12T02:48:46.284Z,94622.00
2023-05-12T02:49:46.302Z,94622.00
2023-05-12T02:50:46.367Z,94620.00
2023-05-12T02:51:46.421Z,94620.00
2023-05-12T02:52:46.354Z,94618.00
2023-05-12T02:53:46.340Z,94618.00
2023-05-12T02:54:46.386Z,94620.00
2023-05-12T02:55:46.401Z,94620.00
2023-05-12T02:56:46.920Z,94618.00
2023-05-12T02:57:46.418Z,94618.00
2023-05-12T02:58:46.470Z,94616.00
2023-05-12T02:59:46.462Z,94616.00
2023-05-12T03:00:48.693Z,94616.00
2023-05-12T03:01:47.511Z,94613.00
2023-05-12T03:02:46.521Z,94615.00
2023-05-12T03:03:46.599Z,94616.00
2023-05-12T03:04:46.481Z,94616.00
2023-05-12T03:05:46.477Z,94613.00
2023-05-12T03:06:46.915Z,94615.00
2023-05-12T03:07:46.417Z,94613.00
2023-05-12T03:08:46.428Z,94611.00
2023-05-12T03:09:46.434Z,94611.00
2023-05-12T03:10:46.395Z,94609.00
2023-05-12T03:11:46.917Z,94611.00
2023-05-12T03:12:46.391Z,94609.00
2023-05-12T03:13:46.379Z,94611.00
2023-05-12T03:14:46.435Z,94607.00
2023-05-12T03:15:46.369Z,94607.00
2023-05-12T03:16:46.465Z,94613.00
2023-05-12T03:17:46.364Z,94609.00
2023-05-12T03:18:46.414Z,94611.00
2023-05-12T03:19:46.368Z,94613.00
2023-05-12T03:20:46.369Z,94615.00
2023-05-12T03:21:46.426Z,94615.00
2023-05-12T03:22:46.354Z,94615.00
2023-05-12T03:23:46.311Z,94616.00
2023-05-12T03:24:46.318Z,94616.00
2023-05-12T03:25:46.343Z,94616.00
2023-05-12T03:26:46.428Z,94615.00
2023-05-12T03:27:46.306Z,94616.00
2023-05-12T03:28:46.282Z,94618.00
2023-05-12T03:29:46.276Z,94616.00
2023-05-12T03:30:46.288Z,94618.00
2023-05-12T03:31:46.500Z,94620.00
2023-05-12T03:32:46.384Z,94622.00
2023-05-12T03:33:46.319Z,94630.00
2023-05-12T03:34:46.356Z,94622.00
2023-05-12T03:35:46.393Z,94630.00
2023-05-12T03:36:46.420Z,94620.00
2023-05-12T03:37:46.405Z,94622.00
2023-05-12T03:38:46.417Z,94620.00
2023-05-12T03:39:46.445Z,94620.00
2023-05-12T03:40:46.463Z,94618.00
2023-05-12T03:41:46.926Z,94616.00
2023-05-12T03:42:46.513Z,94615.00
2023-05-12T03:43:46.524Z,94616.00
2023-05-12T03:44:46.527Z,94615.00
2023-05-12T03:45:46.532Z,94615.00
2023-05-12T03:46:46.644Z,94616.00
2023-05-12T03:47:46.597Z,94616.00
2023-05-12T03:48:46.594Z,94615.00
2023-05-12T03:49:46.593Z,94615.00
2023-05-12T03:50:46.673Z,94615.00
2023-05-12T03:51:46.636Z,94615.00
2023-05-12T03:52:46.691Z,94611.00
2023-05-12T03:53:46.725Z,94615.00
2023-05-12T03:54:46.708Z,94615.00
2023-05-12T03:55:46.730Z,94615.00
2023-05-12T03:56:46.746Z,94615.00
2023-05-12T03:57:46.740Z,94616.00
2023-05-12T03:58:46.746Z,94615.00
2023-05-12T03:59:46.781Z,94615.00
2023-05-12T04:00:46.805Z,94615.00
2023-05-12T04:01:46.932Z,94616.00
2023-05-12T04:02:46.927Z,94615.00
2023-05-12T04:03:47.079Z,94613.00
2023-05-12T04:04:46.920Z,94615.00
2023-05-12T04:05:46.902Z,94616.00
2023-05-12T04:06:46.961Z,94616.00
2023-05-12T04:07:47.010Z,94618.00
2023-05-12T04:08:46.948Z,94618.00
2023-05-12T04:09:47.015Z,94618.00
2023-05-12T04:10:47.013Z,94615.00
2023-05-12T04:11:47.047Z,94616.00
2023-05-12T04:12:47.079Z,94616.00
2023-05-12T04:13:47.054Z,94618.00
2023-05-12T04:14:47.098Z,94620.00
2023-05-12T04:15:47.117Z,94620.00
2023-05-12T04:16:47.165Z,94620.00
2023-05-12T04:17:47.183Z,94620.00
2023-05-12T04:18:47.242Z,94618.00
2023-05-12T04:19:47.207Z,94620.00
2023-05-12T04:20:47.216Z,94620.00
2023-05-12T04:21:47.456Z,94620.00
2023-05-12T04:22:47.241Z,94630.00
2023-05-12T04:23:47.245Z,94622.00
2023-05-12T04:24:47.266Z,94622.00
2023-05-12T04:25:47.281Z,94622.00
2023-05-12T04:26:47.479Z,94630.00
2023-05-12T04:27:47.316Z,94622.00
2023-05-12T04:28:47.331Z,94632.00
2023-05-12T04:29:47.390Z,94634.00
2023-05-12T04:30:47.373Z,94634.00
2023-05-12T04:31:47.469Z,94636.00
2023-05-12T04:32:47.490Z,94638.00
2023-05-12T04:33:48.331Z,94638.00
2023-05-12T04:34:47.438Z,94640.00
2023-05-12T04:35:47.463Z,94638.00
2023-05-12T04:36:47.972Z,94636.00
2023-05-12T04:37:47.543Z,94638.00
2023-05-12T04:38:47.523Z,94638.00
2023-05-12T04:39:47.552Z,94638.00
2023-05-12T04:40:47.577Z,94634.00
2023-05-12T04:41:47.968Z,94634.00
2023-05-12T04:42:47.596Z,94636.00
2023-05-12T04:44:47.601Z,94638.00
2023-05-12T04:45:47.660Z,94636.00
2023-05-12T04:46:47.981Z,94636.00
2023-05-12T04:47:47.687Z,94636.00
2023-05-12T04:48:47.562Z,94638.00
2023-05-12T04:49:47.617Z,94636.00
2023-05-12T04:50:47.584Z,94640.00
2023-05-12T04:51:47.553Z,94638.00
2023-05-12T04:52:47.587Z,94640.00
2023-05-12T04:53:47.530Z,94638.00
2023-05-12T04:54:47.535Z,94638.00
2023-05-12T04:55:47.553Z,94642.00
2023-05-12T04:56:47.978Z,94642.00
2023-05-12T04:57:47.486Z,94642.00
2023-05-12T04:58:47.527Z,94642.00
2023-05-12T04:59:47.503Z,94646.00
2023-05-12T05:00:47.481Z,94648.00
2023-05-12T05:01:48.026Z,94650.00
2023-05-12T05:02:47.561Z,94650.00
2023-05-12T05:03:47.562Z,94652.00
2023-05-12T05:04:47.479Z,94654.00
2023-05-12T05:05:47.448Z,94650.00
2023-05-12T05:06:47.453Z,94652.00
2023-05-12T05:07:47.586Z,94650.00
2023-05-12T05:08:47.440Z,94650.00
2023-05-12T05:09:47.441Z,94652.00
2023-05-12T05:10:47.460Z,94652.00
2023-05-12T05:11:47.451Z,94652.00
2023-05-12T05:12:47.411Z,94654.00
2023-05-12T05:13:47.429Z,94654.00
2023-05-12T05:14:47.442Z,94654.00
2023-05-12T05:15:47.458Z,94652.00
2023-05-12T05:16:47.373Z,94652.00
2023-05-12T05:17:47.451Z,94652.00
2023-05-12T05:18:47.388Z,94652.00
2023-05-12T05:19:57.304Z,94652.00
2023-05-12T05:20:57.196Z,94654.00
2023-05-12T05:21:48.344Z,94652.00
2023-05-12T05:22:47.479Z,94654.00
2023-05-12T05:23:47.349Z,94650.00
2023-05-12T05:24:47.339Z,94652.00
2023-05-12T05:25:47.356Z,94652.00
2023-05-12T05:26:47.347Z,94652.00
2023-05-12T05:27:47.309Z,94654.00
2023-05-12T05:28:47.294Z,94656.00
2023-05-12T05:29:47.332Z,94658.00
2023-05-12T05:30:47.277Z,94656.00
2023-05-12T05:31:47.391Z,94656.00
2023-05-12T05:32:47.365Z,94654.00
2023-05-12T05:33:47.305Z,94654.00
2023-05-12T05:34:47.249Z,94656.00
2023-05-12T05:35:47.271Z,94654.00
2023-05-12T05:36:47.236Z,94654.00
2023-05-12T05:37:47.279Z,94654.00
2023-05-12T05:38:47.252Z,94654.00
2023-05-12T05:39:47.245Z,94652.00
2023-05-12T05:40:53.643Z,94650.00
2023-05-12T05:41:48.215Z,94654.00
2023-05-12T05:42:47.977Z,94650.00
2023-05-12T05:43:47.188Z,94648.00
2023-05-12T05:44:47.194Z,94648.00
2023-05-12T05:45:47.194Z,94650.00
2023-05-12T05:46:47.208Z,94648.00
2023-05-12T05:47:47.542Z,94648.00
2023-05-12T05:48:47.156Z,94652.00
2023-05-12T05:49:47.150Z,94646.00
2023-05-12T05:50:47.160Z,94650.00
2023-05-12T05:51:47.152Z,94650.00
2023-05-12T05:52:47.166Z,94652.00
2023-05-12T05:53:47.177Z,94652.00
2023-05-12T05:54:47.105Z,94654.00
2023-05-12T05:55:47.130Z,94652.00
2023-05-12T05:56:47.119Z,94654.00
2023-05-12T05:57:47.512Z,94656.00
2023-05-12T05:58:47.122Z,94654.00
2023-05-12T05:59:47.119Z,94656.00
2023-05-12T06:00:47.126Z,94656.00
2023-05-12T06:01:47.150Z,94656.00
2023-05-12T06:02:47.726Z,94654.00
2023-05-12T06:03:47.231Z,94650.00
2023-05-12T06:04:47.048Z,94654.00
2023-05-12T06:05:47.078Z,94654.00
2023-05-12T06:06:47.051Z,94650.00
2023-05-12T06:07:47.064Z,94652.00
2023-05-12T06:08:47.119Z,94652.00
2023-05-12T06:09:47.063Z,94652.00
2023-05-12T06:10:47.114Z,94656.00
2023-05-12T06:11:47.137Z,94652.00
2023-05-12T06:12:47.513Z,94654.00
2023-05-12T06:13:47.102Z,94654.00
2023-05-12T06:14:47.112Z,94654.00
2023-05-12T06:15:47.123Z,94658.00
2023-05-12T06:16:47.166Z,94656.00
2023-05-12T06:17:47.535Z,94656.00
2023-05-12T06:18:47.155Z,94654.00
2023-05-12T06:19:47.136Z,94654.00
2023-05-12T06:20:47.151Z,94654.00
2023-05-12T06:21:47.131Z,94652.00
2023-05-12T06:22:47.497Z,94654.00
2023-05-12T06:23:47.214Z,94658.00
2023-05-12T06:24:47.229Z,94654.00
2023-05-12T06:25:47.290Z,94656.00
2023-05-12T06:26:47.390Z,94656.00
2023-05-12T06:27:47.446Z,94656.00
2023-05-12T06:28:47.519Z,94654.00
2023-05-12T06:29:47.578Z,94656.00
2023-05-12T06:30:47.628Z,94654.00
2023-05-12T06:31:47.715Z,94658.00
2023-05-12T06:32:47.772Z,94656.00
2023-05-12T06:33:47.838Z,94660.00
2023-05-12T06:34:47.863Z,94658.00
2023-05-12T06:35:47.933Z,94660.00
2023-05-12T06:36:47.982Z,94662.00
2023-05-12T06:37:48.528Z,94660.00
2023-05-12T06:38:48.089Z,94660.00
2023-05-12T06:39:48.120Z,94660.00
2023-05-12T06:40:48.207Z,94658.00
2023-05-12T06:41:48.325Z,94662.00
2023-05-12T06:42:48.298Z,94658.00
2023-05-12T06:43:48.381Z,94658.00
2023-05-12T06:44:48.449Z,94660.00
2023-05-12T06:45:48.509Z,94662.00
2023-05-12T06:46:48.622Z,94664.00
2023-05-12T06:47:48.706Z,94662.00
2023-05-12T06:48:48.691Z,94662.00
2023-05-12T06:49:48.703Z,94662.00
2023-05-12T06:50:48.759Z,94664.00
2023-05-12T06:51:48.824Z,94664.00
2023-05-12T06:52:48.997Z,94664.00
2023-05-12T06:53:48.902Z,94664.00
2023-05-12T06:54:48.994Z,94662.00
2023-05-12T06:55:49.025Z,94658.00
2023-05-12T06:56:49.090Z,94660.00
2023-05-12T06:57:49.148Z,94656.00
2023-05-12T06:58:49.212Z,94658.00
2023-05-12T06:59:49.237Z,94658.00
2023-05-12T07:00:49.300Z,94656.00
2023-05-12T07:01:49.383Z,94654.00
2023-05-12T07:02:49.562Z,94656.00
2023-05-12T07:03:49.474Z,94654.00
2023-05-12T07:04:49.439Z,94652.00
2023-05-12T07:05:49.544Z,94656.00
2023-05-12T07:06:49.579Z,94650.00
2023-05-12T07:07:49.612Z,94652.00
2023-05-12T07:08:49.674Z,94650.00
2023-05-12T07:09:49.722Z,94652.00
2023-05-12T07:10:49.762Z,94652.00
2023-05-12T07:11:49.851Z,94652.00
2023-05-12T07:12:50.072Z,94652.00
2023-05-12T07:13:49.957Z,94652.00
2023-05-12T07:14:50.067Z,94656.00
2023-05-12T07:15:50.080Z,94650.00
2023-05-12T07:16:50.133Z,94648.00
2023-05-12T07:17:50.304Z,94648.00
2023-05-12T07:18:50.264Z,94644.00
2023-05-12T07:19:50.310Z,94642.00
2023-05-12T07:20:50.342Z,94640.00
2023-05-12T07:21:50.394Z,94640.00
2023-05-12T07:22:50.429Z,94640.00
2023-05-12T07:23:50.524Z,94640.00
2023-05-12T07:24:50.593Z,94644.00
2023-05-12T07:25:50.609Z,94638.00
2023-05-12T07:26:50.658Z,94636.00
2023-05-12T07:27:50.687Z,94640.00
2023-05-12T07:28:50.783Z,94636.00
2023-05-12T07:29:50.798Z,94634.00
2023-05-12T07:30:50.954Z,94636.00
2023-05-12T07:31:51.094Z,94636.00
2023-05-12T07:32:51.050Z,94636.00
2023-05-12T07:33:51.023Z,94636.00
2023-05-12T07:34:51.104Z,94634.00
2023-05-12T07:35:51.142Z,94636.00
2023-05-12T07:36:51.182Z,94632.00
2023-05-12T07:37:51.573Z,94630.00
2023-05-12T07:38:51.332Z,94634.00
2023-05-12T07:39:51.389Z,94622.00
2023-05-12T07:40:51.410Z,94622.00
2023-05-12T07:41:51.478Z,94630.00
2023-05-12T07:42:51.546Z,94632.00
2023-05-12T07:43:51.597Z,94622.00
2023-05-12T07:44:51.637Z,94618.00
2023-05-12T07:45:51.739Z,94620.00
2023-05-12T07:46:51.805Z,94622.00
2023-05-12T07:47:51.883Z,94618.00
2023-05-12T07:48:51.898Z,94620.00
2023-05-12T07:49:51.948Z,94620.00
2023-05-12T07:50:52.004Z,94620.00
2023-05-12T07:51:52.077Z,94620.00
2023-05-12T07:52:52.106Z,94618.00
2023-05-12T07:53:52.148Z,94618.00
2023-05-12T07:54:52.226Z,94616.00
2023-05-12T07:55:52.251Z,94616.00
2023-05-12T07:56:52.303Z,94615.00
2023-05-12T07:57:52.347Z,94616.00
2023-05-12T07:58:52.373Z,94613.00
2023-05-12T07:59:52.430Z,94615.00
2023-05-12T08:00:52.443Z,94615.00
2023-05-12T08:01:54.022Z,94613.00
2023-05-12T08:02:52.738Z,94616.00
2023-05-12T08:03:52.734Z,94615.00
2023-05-12T08:04:52.623Z,94611.00
2023-05-12T08:05:52.671Z,94616.00
2023-05-12T08:06:52.736Z,94615.00
2023-05-12T08:07:52.734Z,94613.00
2023-05-12T08:08:52.780Z,94615.00
2023-05-12T08:09:52.849Z,94615.00
2023-05-12T08:10:52.919Z,94613.00
2023-05-12T08:11:52.949Z,94611.00
2023-05-12T08:12:53.044Z,94611.00
2023-05-12T08:13:53.075Z,94605.00
2023-05-12T08:14:53.147Z,94605.00
2023-05-12T08:15:53.143Z,94607.00
2023-05-12T08:16:53.249Z,94605.00
2023-05-12T08:17:53.282Z,94607.00
2023-05-12T08:18:53.468Z,94607.00
2023-05-12T08:19:53.433Z,94605.00
2023-05-12T08:20:53.446Z,94605.00
2023-05-12T08:21:53.484Z,94607.00
2023-05-12T08:22:53.567Z,94603.00
2023-05-12T08:23:53.644Z,94605.00
2023-05-12T08:24:53.712Z,94603.00
2023-05-12T08:25:53.792Z,94603.00
2023-05-12T08:26:53.835Z,94599.00
2023-05-12T08:27:53.913Z,94601.00
2023-05-12T08:28:53.908Z,94599.00
2023-05-12T08:29:53.980Z,94601.00
2023-05-12T08:30:54.110Z,94599.00
2023-05-12T08:31:54.100Z,94599.00
2023-05-12T08:32:54.203Z,94603.00
2023-05-12T08:34:08.991Z,94603.00
2023-05-12T08:34:55.203Z,94601.00
2023-05-12T08:35:54.165Z,94599.00
2023-05-12T08:36:54.202Z,94603.00
2023-05-12T08:37:54.164Z,94599.00
2023-05-12T08:38:54.154Z,94599.00
2023-05-12T08:39:54.157Z,94603.00
2023-05-12T08:40:54.203Z,94601.00
2023-05-12T08:41:54.150Z,94599.00
2023-05-12T08:42:54.134Z,94601.00
2023-05-12T08:43:54.104Z,94599.00
2023-05-12T08:44:54.124Z,94599.00
2023-05-12T08:45:54.118Z,94597.00
2023-05-12T08:46:54.275Z,94597.00
2023-05-12T08:47:54.301Z,94599.00
2023-05-12T08:48:54.362Z,94599.00
2023-05-12T08:49:54.389Z,94601.00
2023-05-12T08:50:54.469Z,94599.00
2023-05-12T08:51:57.201Z,94599.00
2023-05-12T08:52:54.519Z,94597.00
2023-05-12T08:53:54.522Z,94597.00
2023-05-12T08:54:56.408Z,94595.00
2023-05-12T08:57:09.048Z,94593.00
2023-05-12T08:57:54.472Z,94599.00
2023-05-12T08:58:54.458Z,94599.00
2023-05-12T08:59:54.468Z,94599.00
2023-05-12T09:00:54.595Z,94597.00
2023-05-12T09:01:54.489Z,94601.00
2023-05-12T09:02:55.028Z,94599.00
2023-05-12T09:03:54.475Z,94601.00
2023-05-12T09:04:54.475Z,94601.00
2023-05-12T09:05:54.421Z,94599.00
2023-05-12T09:06:55.949Z,94599.00
2023-05-12T09:07:54.419Z,94597.00
2023-05-12T09:08:54.418Z,94599.00
2023-05-12T09:09:54.399Z,94595.00
2023-05-12T09:10:54.420Z,94599.00
2023-05-12T09:11:54.403Z,94599.00
2023-05-12T09:12:54.380Z,94595.00
2023-05-12T09:13:54.388Z,94597.00
2023-05-12T09:14:54.360Z,94595.00
2023-05-12T09:15:54.423Z,94595.00
2023-05-12T09:16:54.319Z,94591.00
2023-05-12T09:17:54.400Z,94595.00
2023-05-12T09:18:54.697Z,94595.00
2023-05-12T09:19:54.361Z,94593.00
2023-05-12T09:20:54.332Z,94595.00
2023-05-12T09:21:54.364Z,94593.00
2023-05-12T09:22:54.327Z,94591.00
2023-05-12T09:23:54.581Z,94585.00
2023-05-12T09:24:54.341Z,94585.00
2023-05-12T09:25:54.312Z,94583.00
2023-05-12T09:26:54.456Z,94587.00
2023-05-12T09:27:54.368Z,94587.00
2023-05-12T09:28:54.416Z,94585.00
2023-05-12T09:30:54.383Z,94585.00
2023-05-12T09:31:54.498Z,94583.00
2023-05-12T09:32:54.489Z,94585.00
2023-05-12T09:33:54.402Z,94583.00
2023-05-12T09:34:54.400Z,94579.00
2023-05-12T09:35:54.375Z,94581.00
2023-05-12T09:36:54.366Z,94583.00
2023-05-12T09:37:54.351Z,94581.00
2023-05-12T09:38:54.646Z,94581.00
2023-05-12T09:39:54.326Z,94581.00
2023-05-12T09:40:55.117Z,94581.00
2023-05-12T09:41:54.317Z,94579.00
2023-05-12T09:42:54.295Z,94583.00
2023-05-12T09:43:54.346Z,94581.00
2023-05-12T09:44:54.344Z,94583.00
2023-05-12T09:45:54.323Z,94583.00
2023-05-12T09:46:54.343Z,94583.00
2023-05-12T09:47:54.332Z,94585.00
2023-05-12T09:48:54.611Z,94585.00
2023-05-12T09:49:54.250Z,94583.00
2023-05-12T09:50:54.298Z,94581.00
2023-05-12T09:51:54.270Z,94581.00
2023-05-12T09:52:54.306Z,94575.00
2023-05-12T09:53:54.248Z,94577.00
2023-05-12T09:54:54.223Z,94577.00
2023-05-12T09:55:54.210Z,94583.00
2023-05-12T09:56:54.226Z,94581.00
2023-05-12T09:57:54.204Z,94579.00
2023-05-12T09:58:54.249Z,94575.00
2023-05-12T09:59:54.387Z,94573.00
2023-05-12T10:01:13.673Z,94577.00
2023-05-12T10:01:55.231Z,94573.00
2023-05-12T10:02:54.203Z,94577.00
2023-05-12T10:03:54.740Z,94571.00
2023-05-12T10:04:54.201Z,94569.00
2023-05-12T10:05:54.149Z,94571.00
2023-05-12T10:06:54.134Z,94569.00
2023-05-12T10:07:54.135Z,94571.00
2023-05-12T10:08:54.569Z,94569.00
2023-05-12T10:09:54.237Z,94566.00
2023-05-12T10:10:54.374Z,94566.00
2023-05-12T10:11:54.267Z,94566.00
2023-05-12T10:12:54.104Z,94564.00
2023-05-12T10:13:54.609Z,94558.00
2023-05-12T10:14:54.154Z,94560.00
2023-05-12T10:15:54.153Z,94560.00
2023-05-12T10:16:54.337Z,94562.00
2023-05-12T10:17:54.301Z,94560.00
2023-05-12T10:18:54.644Z,94560.00
2023-05-12T10:19:54.351Z,94564.00
2023-05-12T10:20:54.344Z,94564.00
2023-05-12T10:21:54.400Z,94564.00
2023-05-12T10:22:54.478Z,94562.00
2023-05-12T10:23:54.518Z,94560.00
2023-05-12T10:24:54.515Z,94560.00
2023-05-12T10:25:54.601Z,94558.00
2023-05-12T10:26:54.595Z,94558.00
2023-05-12T10:27:54.674Z,94560.00
2023-05-12T10:28:54.757Z,94556.00
2023-05-12T10:29:54.780Z,94560.00
2023-05-12T10:30:54.846Z,94560.00
2023-05-12T10:31:54.843Z,94562.00
2023-05-12T10:32:54.915Z,94560.00
2023-05-12T10:33:55.130Z,94556.00
2023-05-12T10:34:55.050Z,94554.00
2023-05-12T10:35:55.075Z,94556.00
2023-05-12T10:36:55.144Z,94556.00
2023-05-12T10:37:55.154Z,94556.00
2023-05-12T10:38:55.200Z,94558.00
2023-05-12T10:39:55.238Z,94558.00
2023-05-12T10:40:55.266Z,94558.00
2023-05-12T10:41:55.331Z,94560.00
2023-05-12T10:42:55.362Z,94558.00
2023-05-12T10:43:55.643Z,94558.00
2023-05-12T10:44:55.463Z,94558.00
2023-05-12T10:45:55.537Z,94556.00
2023-05-12T10:46:55.608Z,94552.00
2023-05-12T10:47:55.642Z,94552.00
2023-05-12T10:48:56.109Z,94552.00
2023-05-12T10:49:55.669Z,94550.00
2023-05-12T10:50:55.701Z,94550.00
2023-05-12T10:51:55.773Z,94548.00
2023-05-12T10:52:55.800Z,94548.00
2023-05-12T10:53:56.107Z,94546.00
2023-05-12T10:54:55.937Z,94548.00
2023-05-12T10:55:56.163Z,94550.00
2023-05-12T10:56:56.164Z,94546.00
2023-05-12T10:57:56.453Z,94548.00
2023-05-12T10:58:56.424Z,94548.00
2023-05-12T10:59:56.694Z,94550.00
2023-05-12T11:00:56.986Z,94548.00
2023-05-12T11:01:56.758Z,94544.00
2023-05-12T11:03:01.244Z,94544.00
2023-05-12T11:03:57.341Z,94548.00
2023-05-12T11:04:56.472Z,94546.00
2023-05-12T11:05:56.404Z,94542.00
2023-05-12T11:06:56.349Z,94542.00
2023-05-12T11:07:56.972Z,94542.00
2023-05-12T11:08:57.097Z,94540.00
2023-05-12T11:09:59.042Z,94538.00
2023-05-12T11:10:56.310Z,94540.00
2023-05-12T11:11:56.546Z,94536.00
2023-05-12T11:12:56.192Z,94538.00
2023-05-12T11:13:56.602Z,94536.00
2023-05-12T11:14:56.198Z,94538.00
2023-05-12T11:15:56.290Z,94538.00
2023-05-12T11:16:56.202Z,94536.00
2023-05-12T11:17:56.263Z,94536.00
2023-05-12T11:18:56.260Z,94538.00
2023-05-12T11:19:56.161Z,94538.00
2023-05-12T11:20:56.152Z,94534.00
2023-05-12T11:21:56.180Z,94536.00
2023-05-12T11:22:56.193Z,94536.00
2023-05-12T11:23:56.626Z,94536.00
2023-05-12T11:24:56.240Z,94536.00
2023-05-12T11:25:56.265Z,94534.00
2023-05-12T11:26:56.099Z,94536.00
2023-05-12T11:27:56.182Z,94534.00
2023-05-12T11:28:56.088Z,94534.00
2023-05-12T11:29:56.151Z,94536.00
2023-05-12T11:30:56.183Z,94534.00
2023-05-12T11:31:56.264Z,94536.00
2023-05-12T11:32:56.286Z,94530.00
2023-05-12T11:34:10.799Z,94530.00
2023-05-12T11:34:57.342Z,94530.00
2023-05-12T11:35:56.295Z,94528.00
2023-05-12T11:36:56.266Z,94530.00
2023-05-12T11:37:56.325Z,94526.00
2023-05-12T11:38:56.263Z,94524.00
2023-05-12T11:39:56.653Z,94528.00
2023-05-12T11:40:56.224Z,94524.00
2023-05-12T11:42:05.490Z,94526.00
2023-05-12T11:42:57.273Z,94528.00
2023-05-12T11:43:56.229Z,94526.00
2023-05-12T11:44:56.271Z,94522.00
2023-05-12T11:45:56.262Z,94520.00
2023-05-12T11:46:56.230Z,94522.00
2023-05-12T11:47:58.078Z,94518.00